Detroit, Michigan
Traffic Map
Current Weather Conditions
Detroit, Michigan
Few Clouds
Few Clouds
19°
Feels Like: 19°
Wind Chill: 19° Ceiling: Unl
Heat Index: 19° Visibility: 15mi
Dew Point: 17° Wind: 5mph
Humidity: 88% Direction: 350° (N)
Pressure: 30.03in Gusts: 0mph
Raw Report DataCYQG 261000Z 35004KT 15SM FEW290 19/17 A3003 RMK CI1 SLP167 DENSITY ALT 1100FT
Traffic Incident Summary
Active as of:
Severity:
Category:
InformationThere was an issue retrieving the traffic information for this location. Please try a different location or try again shortly.
Advertisements
Track Severe Weather on mobile